Time;durP1;ratioP1;P1;durP2;ratioP2;P2;SDS_P1;SDS_P2;PMS_P1;PMS_P2;Temp;Humidity;BMP_temperature;BMP_pressure;BME280_temperature;BME280_humidity;BME280_pressure;Samples;Min_cycle;Max_cycle;Signal;HPM_P1;HPM_P2
2022/01/08 00:00:27;;;;;;;;;;;;;;;2.51;89.86;100321.47;5037340;27;20786;-68
2022/01/08 00:02:52;;;;;;;;;;;;;;;2.58;89.79;100319.31;5051209;27;19904;-69
2022/01/08 00:05:18;;;;;;;;;;;;;;;2.58;89.70;100329.75;5018790;27;19909;-68
2022/01/08 00:07:43;;;;;;;;;;;;;;;2.54;90.02;100330.91;5007080;28;20334;-67
2022/01/08 00:10:09;;;;;;;;;;;;;;;2.58;89.85;100319.31;5051167;27;19903;-68
2022/01/08 00:12:34;;;;;;;;;;;;;;;2.53;90.00;100318.78;5033915;27;20630;-67
2022/01/08 00:14:59;;;;;;;;;;;;;;;2.54;90.03;100320.47;5059634;27;19955;-69
2022/01/08 00:17:24;;;;;;;;;;;;;;;2.52;90.38;100324.91;5033692;27;19923;-70
2022/01/08 00:19:50;;;;;;;;;;;;;;;2.51;90.35;100312.78;5071885;27;19913;-70
2022/01/08 00:22:15;;;;;;;;;;;;;;;2.52;90.26;100319.69;5057245;27;20349;-71
2022/01/08 00:24:41;;;;;;;;;;;;;;;2.55;90.54;100322.97;5053459;27;20333;-69
2022/01/08 00:27:06;;;;;;;;;;;;;;;2.60;90.34;100322.66;5045395;27;20983;-69
2022/01/08 00:29:31;;;;;;;;;;;;;;;2.59;90.10;100321.00;5077132;27;19955;-68
2022/01/08 00:31:56;;;;;;;;;;;;;;;2.53;90.41;100326.59;5060439;27;20009;-68
2022/01/08 00:34:21;;;;;;;;;;;;;;;2.63;90.66;100316.41;5039463;27;20313;-69
2022/01/08 00:36:47;;;;;;;;;;;;;;;2.60;90.83;100327.91;5030085;27;20767;-68
2022/01/08 00:39:12;;;;;;;;;;;;;;;2.57;90.77;100328.91;5024865;27;20295;-68
2022/01/08 00:41:37;;;;;;;;;;;;;;;2.57;90.79;100328.09;5060188;27;20127;-69
2022/01/08 00:44:03;;;;;;;;;;;;;;;2.54;90.86;100328.28;5036206;27;20382;-67
2022/01/08 00:46:28;;;;;;;;;;;;;;;2.52;90.90;100335.38;5057697;27;19914;-69
2022/01/08 00:48:53;;;;;;;;;;;;;;;2.57;90.84;100335.94;5051540;27;19918;-68
2022/01/08 00:51:18;;;;;;;;;;;;;;;2.56;90.98;100332.47;5041596;27;19944;-69
2022/01/08 00:53:44;;;;;;;;;;;;;;;2.53;90.99;100334.44;5059172;27;20123;-68
2022/01/08 00:56:09;;;;;;;;;;;;;;;2.60;90.89;100338.34;5075129;27;19911;-66
2022/01/08 00:58:34;;;;;;;;;;;;;;;2.65;90.84;100336.31;5058945;27;19968;-68
2022/01/08 01:00:59;;;;;;;;;;;;;;;2.64;90.78;100339.84;5073992;27;19977;-69
2022/01/08 01:03:24;;;;;;;;;;;;;;;2.67;90.94;100339.63;5060429;27;20007;-67
2022/01/08 01:05:50;;;;;;;;;;;;;;;2.70;91.16;100342.06;5070162;27;19907;-68
2022/01/08 01:08:15;;;;;;;;;;;;;;;2.68;91.14;100346.56;5040299;27;19911;-69
2022/01/08 01:10:40;;;;;;;;;;;;;;;2.60;90.97;100335.72;5031141;27;19915;-68
2022/01/08 01:13:05;;;;;;;;;;;;;;;2.62;91.02;100338.25;5038875;27;19911;-68
2022/01/08 01:15:30;;;;;;;;;;;;;;;2.65;91.05;100344.13;5053384;27;19907;-70
2022/01/08 01:17:56;;;;;;;;;;;;;;;2.64;91.41;100344.22;5057549;27;20817;-69
2022/01/08 01:20:21;;;;;;;;;;;;;;;2.67;91.07;100344.88;5038329;27;20031;-68
2022/01/08 01:25:20;;;;;;;;;;;;;;;2.68;91.12;100346.56;5038244;27;20132;-68
2022/01/08 01:30:29;;;;;;;;;;;;;;;2.68;91.06;100346.56;5040441;27;20072;-67
2022/01/08 01:48:49;;;;;;;;;;;;;;;2.74;90.61;100374.06;5034836;27;20163;-68
2022/01/08 01:51:21;;;;;;;;;;;;;;;2.73;90.80;100378.44;5032045;27;20382;-69
2022/01/08 01:53:46;;;;;;;;;;;;;;;2.67;91.24;100376.22;5034406;27;20201;-70
2022/01/08 01:56:12;;;;;;;;;;;;;;;2.65;90.89;100372.00;5032108;27;20378;-68
2022/01/08 01:58:37;;;;;;;;;;;;;;;2.62;91.03;100375.66;5033707;27;20536;-68
2022/01/08 02:01:02;;;;;;;;;;;;;;;2.55;91.21;100366.50;5030805;27;19947;-68
2022/01/08 02:03:27;;;;;;;;;;;;;;;2.54;90.94;100359.63;5037749;27;20008;-70
2022/01/08 02:05:53;;;;;;;;;;;;;;;2.56;91.10;100363.81;5032274;27;20140;-69
2022/01/08 02:08:18;;;;;;;;;;;;;;;2.49;91.07;100353.84;5036579;27;19908;-67
2022/01/08 02:10:43;;;;;;;;;;;;;;;2.43;90.96;100351.63;5004005;27;19904;-69
2022/01/08 02:13:08;;;;;;;;;;;;;;;2.43;90.98;100351.63;5036267;27;20443;-70
2022/01/08 02:15:34;;;;;;;;;;;;;;;2.40;90.76;100353.47;5014679;27;19904;-67
2022/01/08 02:18:00;;;;;;;;;;;;;;;2.34;90.65;100358.22;5033931;27;19915;-68
2022/01/08 02:20:25;;;;;;;;;;;;;;;2.34;90.50;100360.84;5025490;27;19952;-68
2022/01/08 02:22:50;;;;;;;;;;;;;;;2.27;90.40;100363.00;5053914;27;20015;-67
2022/01/08 02:25:20;;;;;;;;;;;;;;;2.27;90.56;100357.78;5031483;27;19952;-69
2022/01/08 02:27:45;;;;;;;;;;;;;;;2.27;90.39;100356.91;5038171;27;19899;-69
2022/01/08 02:30:10;;;;;;;;;;;;;;;2.15;90.09;100363.72;5052234;27;19914;-70
2022/01/08 02:32:37;;;;;;;;;;;;;;;2.17;89.88;100369.69;5057469;27;20525;-70
2022/01/08 02:35:03;;;;;;;;;;;;;;;2.13;90.01;100369.03;5051548;27;19986;-69
2022/01/08 02:37:30;;;;;;;;;;;;;;;2.02;90.46;100356.63;5035719;27;20062;-70
2022/01/08 02:39:56;;;;;;;;;;;;;;;1.97;90.93;100356.06;5029631;27;19907;-69
2022/01/08 02:42:22;;;;;;;;;;;;;;;2.06;90.87;100345.06;5041454;27;19903;-70
2022/01/08 02:44:47;;;;;;;;;;;;;;;2.08;90.83;100359.81;5053168;27;19919;-70
2022/01/08 02:47:13;;;;;;;;;;;;;;;2.11;90.93;100362.22;5052240;27;19907;-69
2022/01/08 02:49:38;;;;;;;;;;;;;;;2.20;90.77;100366.88;5030034;27;20262;-69
2022/01/08 02:52:04;;;;;;;;;;;;;;;2.21;90.59;100360.75;5035995;27;20017;-68
2022/01/08 02:54:29;;;;;;;;;;;;;;;2.17;90.60;100360.09;5030963;27;19904;-69
2022/01/08 02:56:54;;;;;;;;;;;;;;;2.16;90.33;100350.59;5037694;27;19914;-69
2022/01/08 02:59:19;;;;;;;;;;;;;;;2.11;90.71;100351.78;5034672;27;20097;-68
2022/01/08 03:01:45;;;;;;;;;;;;;;;2.14;90.71;100362.88;5035240;27;19907;-69
2022/01/08 03:04:10;;;;;;;;;;;;;;;2.14;90.80;100362.88;5015642;27;19907;-68
2022/01/08 03:06:35;;;;;;;;;;;;;;;2.15;90.78;100361.13;5028747;27;19968;-68
2022/01/08 03:09:00;;;;;;;;;;;;;;;2.16;90.64;100363.63;5034760;27;19984;-68
2022/01/08 03:11:26;;;;;;;;;;;;;;;2.25;90.90;100370.06;5013559;28;19949;-69
2022/01/08 03:13:51;;;;;;;;;;;;;;;2.16;90.41;100373.25;4996366;28;20192;-68
2022/01/08 03:16:17;;;;;;;;;;;;;;;2.23;90.93;100370.16;5012126;28;19904;-69
2022/01/08 03:18:43;;;;;;;;;;;;;;;2.22;90.72;100370.25;4996822;28;20472;-68
2022/01/08 03:21:16;;;;;;;;;;;;;;;2.15;90.41;100367.16;5009086;28;20628;-69
2022/01/08 03:26:37;;;;;;;;;;;;;;;2.11;90.38;100377.88;5001976;28;19931;-68
2022/01/08 03:29:02;;;;;;;;;;;;;;;2.08;90.49;100384.13;5015790;27;20008;-70
2022/01/08 03:31:27;;;;;;;;;;;;;;;2.04;90.77;100385.25;5034977;27;19907;-70
2022/01/08 03:33:53;;;;;;;;;;;;;;;2.03;90.38;100394.84;4996362;27;19960;-69
2022/01/08 03:36:21;;;;;;;;;;;;;;;1.97;90.18;100392.59;5020559;27;20848;-70
2022/01/08 03:38:46;;;;;;;;;;;;;;;1.94;90.15;100397.16;5032539;27;20192;-70
2022/01/08 03:41:11;;;;;;;;;;;;;;;1.96;90.46;100397.91;5031790;27;19915;-68
2022/01/08 03:43:36;;;;;;;;;;;;;;;2.02;90.62;100411.44;5034057;27;20023;-69
2022/01/08 03:46:03;;;;;;;;;;;;;;;2.10;90.64;100413.59;5012941;27;19920;-68
2022/01/08 03:48:32;;;;;;;;;;;;;;;2.09;90.72;100421.50;5025982;27;19912;-68
2022/01/08 03:50:57;;;;;;;;;;;;;;;2.22;90.43;100431.13;5033353;27;20012;-69
2022/01/08 03:53:23;;;;;;;;;;;;;;;2.26;89.83;100423.97;5032668;27;20259;-68
2022/01/08 03:55:48;;;;;;;;;;;;;;;2.29;89.40;100429.00;5031629;27;19903;-69
2022/01/08 03:58:13;;;;;;;;;;;;;;;2.34;88.27;100436.56;5032657;27;20505;-69
2022/01/08 04:00:38;;;;;;;;;;;;;;;2.39;86.51;100435.34;5034366;27;20009;-68
2022/01/08 04:03:04;;;;;;;;;;;;;;;2.37;86.43;100429.38;5041528;27;19903;-69
2022/01/08 04:05:29;;;;;;;;;;;;;;;2.42;86.32;100428.28;5036582;27;19910;-69
2022/01/08 04:07:54;;;;;;;;;;;;;;;2.44;85.96;100437.69;5040873;27;20364;-69
2022/01/08 04:10:19;;;;;;;;;;;;;;;2.36;86.38;100440.75;5028866;27;20304;-68
2022/01/08 04:12:49;;;;;;;;;;;;;;;2.31;86.53;100444.56;5043061;27;19915;-70
2022/01/08 04:17:49;;;;;;;;;;;;;;;2.29;85.06;100438.63;5054795;27;20417;-71
2022/01/08 04:20:15;;;;;;;;;;;;;;;2.15;85.48;100442.88;5060991;27;20664;-67
2022/01/08 04:22:40;;;;;;;;;;;;;;;2.11;85.94;100450.97;5060012;27;19960;-68
2022/01/08 04:25:05;;;;;;;;;;;;;;;2.20;86.36;100460.88;5041107;27;19930;-67
2022/01/08 04:27:30;;;;;;;;;;;;;;;2.15;86.89;100461.13;5057893;27;19992;-68
2022/01/08 04:29:56;;;;;;;;;;;;;;;2.13;86.54;100449.97;5052768;27;20119;-69
2022/01/08 04:32:21;;;;;;;;;;;;;;;2.09;86.48;100450.22;5055971;27;19911;-70
2022/01/08 04:34:46;;;;;;;;;;;;;;;2.02;87.14;100463.63;5061957;27;19908;-70
2022/01/08 04:37:11;;;;;;;;;;;;;;;2.05;87.73;100467.84;5042726;27;20044;-70
2022/01/08 04:39:36;;;;;;;;;;;;;;;2.00;87.94;100462.03;5045397;27;19907;-70
2022/01/08 04:42:02;;;;;;;;;;;;;;;2.10;87.78;100467.56;5017753;27;19910;-70
2022/01/08 04:44:27;;;;;;;;;;;;;;;2.16;87.00;100472.44;5040859;27;19923;-70
2022/01/08 04:46:52;;;;;;;;;;;;;;;2.28;86.08;100478.69;5036385;27;19953;-70
2022/01/08 04:49:17;;;;;;;;;;;;;;;2.12;85.89;100478.75;5033166;27;20352;-70
2022/01/08 04:51:42;;;;;;;;;;;;;;;2.27;85.79;100477.00;5034880;27;19908;-68
2022/01/08 04:54:08;;;;;;;;;;;;;;;2.19;85.91;100480.91;5043433;27;19948;-68
2022/01/08 04:56:33;;;;;;;;;;;;;;;2.22;86.21;100485.13;5038137;27;20035;-68
2022/01/08 04:58:58;;;;;;;;;;;;;;;2.13;86.14;100485.66;5021505;27;20055;-70
2022/01/08 05:01:24;;;;;;;;;;;;;;;2.04;86.33;100485.25;5036074;27;19912;-70
2022/01/08 05:03:49;;;;;;;;;;;;;;;2.02;86.72;100488.91;5036319;27;19900;-70
2022/01/08 05:06:14;;;;;;;;;;;;;;;2.05;86.75;100486.94;5032507;27;19903;-69
2022/01/08 05:08:40;;;;;;;;;;;;;;;2.13;86.45;100485.66;5037517;27;19917;-69
2022/01/08 05:11:05;;;;;;;;;;;;;;;2.16;85.80;100490.72;5003477;27;19913;-68
2022/01/08 05:13:30;;;;;;;;;;;;;;;2.05;85.84;100489.53;5014744;27;19914;-69
2022/01/08 05:15:56;;;;;;;;;;;;;;;2.00;85.97;100494.22;5016966;27;19899;-67
2022/01/08 05:18:23;;;;;;;;;;;;;;;1.81;86.74;100493.56;5034063;27;19931;-68
2022/01/08 05:20:56;;;;;;;;;;;;;;;1.86;86.74;100499.34;5033315;27;20731;-68
2022/01/08 05:23:21;;;;;;;;;;;;;;;1.78;86.53;100491.97;5036731;27;20836;-67
2022/01/08 05:25:47;;;;;;;;;;;;;;;1.73;86.87;100496.59;5032930;27;19953;-68
2022/01/08 05:28:12;;;;;;;;;;;;;;;1.69;87.12;100498.53;5027950;27;19908;-67
2022/01/08 05:30:37;;;;;;;;;;;;;;;1.70;87.05;100494.16;5032182;27;19968;-69
2022/01/08 05:33:02;;;;;;;;;;;;;;;1.57;87.04;100494.00;5024790;27;20308;-69
2022/01/08 05:35:27;;;;;;;;;;;;;;;1.60;87.56;100504.25;5033415;27;20016;-68
2022/01/08 05:37:53;;;;;;;;;;;;;;;1.51;87.27;100510.00;5026846;27;20553;-70
2022/01/08 05:40:18;;;;;;;;;;;;;;;1.41;87.19;100498.38;5029837;27;20452;-68
2022/01/08 05:42:43;;;;;;;;;;;;;;;1.28;87.19;100498.22;5035462;27;20211;-70
2022/01/08 05:45:09;;;;;;;;;;;;;;;1.18;87.86;100503.06;5033913;27;19949;-68
2022/01/08 05:47:35;;;;;;;;;;;;;;;1.06;87.91;100503.72;5035913;27;19957;-68
2022/01/08 05:50:00;;;;;;;;;;;;;;;0.96;88.12;100504.22;5032677;27;20086;-71
2022/01/08 05:52:25;;;;;;;;;;;;;;;0.82;88.23;100506.72;5030960;27;19906;-68
2022/01/08 05:54:50;;;;;;;;;;;;;;;0.85;88.57;100507.38;5033471;27;21636;-68
2022/01/08 05:57:16;;;;;;;;;;;;;;;0.84;88.08;100504.88;5030941;27;19971;-70
2022/01/08 05:59:41;;;;;;;;;;;;;;;0.75;88.53;100508.78;5035996;27;20131;-67
2022/01/08 06:02:09;;;;;;;;;;;;;;;0.88;88.40;100505.56;5032357;27;19908;-68
2022/01/08 06:04:34;;;;;;;;;;;;;;;0.75;88.44;100506.19;5034791;27;19926;-70
2022/01/08 06:06:59;;;;;;;;;;;;;;;0.69;88.72;100509.09;5028986;27;20838;-69
2022/01/08 06:09:24;;;;;;;;;;;;;;;0.60;88.91;100520.00;5032869;27;19996;-69
2022/01/08 06:11:50;;;;;;;;;;;;;;;0.57;88.80;100526.19;5046217;27;20127;-68
2022/01/08 06:14:15;;;;;;;;;;;;;;;0.61;89.01;100519.91;5055073;27;19907;-70
2022/01/08 06:16:40;;;;;;;;;;;;;;;0.66;88.89;100525.75;5038637;27;19907;-68
2022/01/08 06:19:06;;;;;;;;;;;;;;;0.67;88.83;100523.97;5051352;27;19960;-70
2022/01/08 06:21:31;;;;;;;;;;;;;;;0.64;88.58;100527.56;5055623;27;19948;-70
2022/01/08 06:23:57;;;;;;;;;;;;;;;0.61;88.29;100539.91;5049057;27;20020;-68
2022/01/08 06:26:22;;;;;;;;;;;;;;;0.56;88.45;100539.31;5018200;27;19908;-68
2022/01/08 06:28:49;;;;;;;;;;;;;;;0.57;88.96;100538.38;5018287;27;19907;-67
2022/01/08 06:31:14;;;;;;;;;;;;;;;0.56;88.61;100549.72;5029930;27;20008;-68
2022/01/08 06:33:39;;;;;;;;;;;;;;;0.57;88.37;100549.63;5037174;27;20200;-68
2022/01/08 06:36:05;;;;;;;;;;;;;;;0.55;89.00;100558.44;5033648;27;19911;-69
2022/01/08 06:38:30;;;;;;;;;;;;;;;0.61;88.62;100555.53;5024598;27;20043;-69
2022/01/08 06:40:55;;;;;;;;;;;;;;;0.59;88.44;100568.66;5024934;27;19907;-69
2022/01/08 06:43:20;;;;;;;;;;;;;;;0.63;88.70;100569.31;5035929;27;19925;-69
2022/01/08 06:45:45;;;;;;;;;;;;;;;0.76;89.28;100578.22;5051916;27;19919;-69
2022/01/08 06:48:11;;;;;;;;;;;;;;;0.86;89.22;100581.16;5053207;27;20009;-69
2022/01/08 06:50:36;;;;;;;;;;;;;;;0.97;89.25;100585.81;5055198;27;19910;-71
2022/01/08 06:53:01;;;;;;;;;;;;;;;1.18;89.33;100583.88;5056618;27;20020;-68
2022/01/08 06:55:27;;;;;;;;;;;;;;;1.17;88.58;100585.66;5053996;27;19923;-67
2022/01/08 06:57:54;;;;;;;;;;;;;;;1.29;88.78;100594.56;5076779;27;19919;-69
2022/01/08 07:00:19;;;;;;;;;;;;;;;1.40;88.36;100586.19;5057892;27;20333;-69
2022/01/08 07:02:44;;;;;;;;;;;;;;;1.41;88.22;100584.41;5056366;27;20310;-68
2022/01/08 07:05:10;;;;;;;;;;;;;;;1.45;88.09;100593.75;5078745;27;20398;-68
2022/01/08 07:07:35;;;;;;;;;;;;;;;1.49;87.97;100585.69;5031766;27;20024;-69
2022/01/08 07:10:00;;;;;;;;;;;;;;;1.48;87.92;100593.59;5057896;27;20252;-71
2022/01/08 07:12:25;;;;;;;;;;;;;;;1.50;87.92;100594.38;5034906;27;19914;-67
2022/01/08 07:14:51;;;;;;;;;;;;;;;1.64;87.30;100591.84;5056207;27;19903;-70
2022/01/08 07:17:16;;;;;;;;;;;;;;;1.66;86.99;100599.59;5052047;27;19919;-68
2022/01/08 07:19:41;;;;;;;;;;;;;;;1.65;87.04;100596.16;5055992;27;20120;-69
2022/01/08 07:22:06;;;;;;;;;;;;;;;1.68;87.17;100590.75;5033705;27;19914;-68
2022/01/08 07:24:32;;;;;;;;;;;;;;;1.66;87.18;100597.81;5036245;27;19974;-69
2022/01/08 07:26:57;;;;;;;;;;;;;;;1.64;87.05;100583.19;5011931;27;20011;-70
2022/01/08 07:29:22;;;;;;;;;;;;;;;1.62;87.45;100593.72;5056397;27;19962;-70
2022/01/08 07:31:47;;;;;;;;;;;;;;;1.63;86.63;100590.16;5018132;27;19907;-67
2022/01/08 07:34:12;;;;;;;;;;;;;;;1.71;86.44;100590.59;5056537;27;19913;-68
2022/01/08 07:36:38;;;;;;;;;;;;;;;1.76;86.34;100584.28;5020128;27;19930;-67
2022/01/08 07:39:03;;;;;;;;;;;;;;;1.67;86.41;100578.63;5034752;27;20012;-67
2022/01/08 07:41:28;;;;;;;;;;;;;;;1.67;86.46;100596.06;5035600;27;19911;-67
2022/01/08 07:43:54;;;;;;;;;;;;;;;1.66;86.73;100591.75;5034829;27;19907;-69
2022/01/08 07:46:19;;;;;;;;;;;;;;;1.64;86.41;100591.84;5058315;27;20368;-69
2022/01/08 07:48:44;;;;;;;;;;;;;;;1.58;86.65;100596.53;5052604;27;19910;-68
2022/01/08 07:51:10;;;;;;;;;;;;;;;1.44;86.61;100598.16;5058964;27;19990;-68
2022/01/08 07:53:35;;;;;;;;;;;;;;;1.45;87.35;100604.19;5015643;27;19908;-68
2022/01/08 07:56:00;;;;;;;;;;;;;;;1.41;87.02;100608.75;5023230;27;20719;-68
2022/01/08 07:58:25;;;;;;;;;;;;;;;1.43;87.13;100611.25;5035122;27;20540;-67
2022/01/08 08:00:51;;;;;;;;;;;;;;;1.31;86.97;100615.34;5058572;27;20290;-68
2022/01/08 08:03:17;;;;;;;;;;;;;;;1.40;87.07;100621.84;5016127;28;20032;-67
2022/01/08 08:05:42;;;;;;;;;;;;;;;1.31;87.29;100612.72;5019853;27;19907;-67
2022/01/08 08:08:07;;;;;;;;;;;;;;;1.36;87.51;100613.34;5058984;27;20720;-69
2022/01/08 08:10:32;;;;;;;;;;;;;;;1.38;87.99;100614.09;5055451;27;20397;-69
2022/01/08 08:12:58;;;;;;;;;;;;;;;1.44;87.51;100613.78;5056658;27;19903;-69
2022/01/08 08:15:24;;;;;;;;;;;;;;;1.50;87.49;100607.41;5033641;27;19904;-69
2022/01/08 08:17:49;;;;;;;;;;;;;;;1.51;87.98;100599.50;5052500;27;20248;-68
2022/01/08 08:20:14;;;;;;;;;;;;;;;1.55;87.97;100610.59;5053138;27;19914;-69
2022/01/08 08:22:39;;;;;;;;;;;;;;;1.57;88.09;100606.16;5030549;28;20907;-68
2022/01/08 08:25:05;;;;;;;;;;;;;;;1.59;88.08;100596.47;5014100;27;20227;-67
2022/01/08 08:27:30;;;;;;;;;;;;;;;1.64;88.47;100604.88;5055537;27;19903;-68
2022/01/08 08:29:56;;;;;;;;;;;;;;;1.71;88.23;100606.25;5017426;27;19915;-67
2022/01/08 08:32:21;;;;;;;;;;;;;;;1.80;88.23;100606.66;5027964;27;20191;-67
2022/01/08 08:34:46;;;;;;;;;;;;;;;1.86;88.26;100596.75;5038117;27;20015;-66
2022/01/08 08:37:12;;;;;;;;;;;;;;;1.98;87.82;100597.00;5052748;27;19907;-70
2022/01/08 08:39:37;;;;;;;;;;;;;;;2.37;89.05;100593.06;5019539;27;19918;-69
2022/01/08 08:42:02;;;;;;;;;;;;;;;3.41;89.03;100591.25;5074571;27;19899;-70
2022/01/08 08:44:27;;;;;;;;;;;;;;;4.35;85.00;100594.94;5058080;27;20408;-67
2022/01/08 08:46:53;;;;;;;;;;;;;;;3.86;79.92;100591.09;5073871;27;20302;-68
2022/01/08 08:49:18;;;;;;;;;;;;;;;3.42;80.25;100587.69;5037959;27;22199;-66
2022/01/08 08:51:43;;;;;;;;;;;;;;;3.29;81.06;100585.94;5032905;27;19963;-68
2022/01/08 08:54:08;;;;;;;;;;;;;;;3.37;81.54;100581.94;5060620;27;20704;-68
2022/01/08 08:56:34;;;;;;;;;;;;;;;3.32;81.23;100583.97;5016420;27;20586;-69
2022/01/08 08:58:59;;;;;;;;;;;;;;;3.38;80.71;100580.97;5058530;27;20887;-68
2022/01/08 09:01:25;;;;;;;;;;;;;;;3.35;81.13;100582.94;5039346;27;19903;-70
2022/01/08 09:03:51;;;;;;;;;;;;;;;3.52;80.13;100587.97;5041262;27;20731;-69
2022/01/08 09:06:16;;;;;;;;;;;;;;;3.59;80.19;100585.81;5023513;27;19903;-68
2022/01/08 09:08:41;;;;;;;;;;;;;;;3.47;79.80;100583.94;5042137;27;19907;-68
2022/01/08 09:11:06;;;;;;;;;;;;;;;3.41;80.33;100591.25;5026866;27;20623;-67
2022/01/08 09:13:31;;;;;;;;;;;;;;;3.39;79.63;100589.66;5042792;27;20318;-68
2022/01/08 09:15:57;;;;;;;;;;;;;;;3.23;80.91;100587.16;5060781;27;20857;-68
2022/01/08 09:18:22;;;;;;;;;;;;;;;3.33;80.28;100583.03;5042103;27;19995;-68
2022/01/08 09:20:47;;;;;;;;;;;;;;;3.17;80.56;100587.50;5043446;27;20955;-68
2022/01/08 09:23:13;;;;;;;;;;;;;;;3.15;80.94;100592.00;5037294;27;19972;-68
2022/01/08 09:25:38;;;;;;;;;;;;;;;3.25;80.29;100586.09;5042724;27;20317;-68
2022/01/08 09:28:03;;;;;;;;;;;;;;;3.09;79.76;100595.84;5057619;27;20011;-68
2022/01/08 09:30:28;;;;;;;;;;;;;;;3.21;79.89;100578.56;5019405;27;20753;-68
2022/01/08 09:32:54;;;;;;;;;;;;;;;3.46;79.07;100572.66;5037874;27;20375;-69
2022/01/08 09:35:19;;;;;;;;;;;;;;;3.59;78.33;100584.03;5027793;27;20777;-68
2022/01/08 09:37:44;;;;;;;;;;;;;;;3.74;77.50;100577.00;5020712;27;20020;-68
2022/01/08 09:40:11;;;;;;;;;;;;;;;3.87;76.73;100581.47;5029811;27;20811;-68
2022/01/08 09:42:36;;;;;;;;;;;;;;;3.66;76.37;100584.50;5037456;27;19912;-67
2022/01/08 09:45:02;;;;;;;;;;;;;;;3.71;77.49;100574.59;5043683;27;20009;-68
2022/01/08 09:47:27;;;;;;;;;;;;;;;3.95;76.35;100581.81;5063390;27;20166;-68
2022/01/08 09:49:52;;;;;;;;;;;;;;;3.72;76.38;100570.19;5020659;27;19960;-69
2022/01/08 09:52:17;;;;;;;;;;;;;;;3.73;76.28;100577.09;5036370;27;19957;-67
2022/01/08 09:54:43;;;;;;;;;;;;;;;3.55;77.12;100568.63;5034588;27;20365;-67
2022/01/08 09:57:08;;;;;;;;;;;;;;;3.75;77.45;100567.38;5039708;27;20470;-67
2022/01/08 09:59:33;;;;;;;;;;;;;;;3.92;76.28;100574.13;5058542;27;19944;-67
2022/01/08 10:01:59;;;;;;;;;;;;;;;4.02;75.96;100569.16;5035852;27;20016;-67
2022/01/08 10:04:33;;;;;;;;;;;;;;;4.04;75.66;100568.13;5023541;27;20015;-69
2022/01/08 10:07:17;;;;;;;;;;;;;;;4.23;75.10;100557.31;5028584;27;20207;-69
2022/01/08 10:10:01;;;;;;;;;;;;;;;4.19;74.98;100549.72;5051322;27;20012;-67
2022/01/08 10:12:35;;;;;;;;;;;;;;;4.26;74.45;100541.38;5058220;27;20099;-66
2022/01/08 10:17:45;;;;;;;;;;;;;;;4.02;75.64;100538.59;5052061;27;19976;-67
2022/01/08 10:20:10;;;;;;;;;;;;;;;4.09;76.50;100532.03;5022452;27;19915;-68
2022/01/08 10:22:35;;;;;;;;;;;;;;;4.20;76.88;100528.72;5025759;27;20400;-67
2022/01/08 10:25:08;;;;;;;;;;;;;;;4.12;77.14;100523.13;5031098;27;20004;-69
2022/01/08 10:27:36;;;;;;;;;;;;;;;4.19;78.12;100524.41;5039171;27;19914;-67
2022/01/08 10:30:01;;;;;;;;;;;;;;;4.09;77.95;100511.06;5027849;27;19915;-67
2022/01/08 10:32:27;;;;;;;;;;;;;;;3.90;77.79;100507.97;5019880;27;19918;-67
2022/01/08 10:34:52;;;;;;;;;;;;;;;3.80;78.00;100509.50;5040086;27;20402;-67
2022/01/08 10:37:17;;;;;;;;;;;;;;;3.79;78.84;100503.41;5059101;27;20314;-67
2022/01/08 10:39:42;;;;;;;;;;;;;;;3.72;78.66;100499.53;5036593;27;20684;-68
2022/01/08 10:42:12;;;;;;;;;;;;;;;3.86;78.16;100496.84;5043006;27;20238;-67
2022/01/08 10:44:37;;;;;;;;;;;;;;;3.96;76.88;100494.47;5048966;27;19971;-68
2022/01/08 10:47:06;;;;;;;;;;;;;;;4.33;76.19;100496.44;5046122;27;20000;-67
2022/01/08 10:49:31;;;;;;;;;;;;;;;4.66;74.69;100490.72;5049441;27;19911;-68
2022/01/08 10:51:57;;;;;;;;;;;;;;;5.05;72.80;100486.28;5065623;27;19904;-67
2022/01/08 10:54:26;;;;;;;;;;;;;;;4.82;71.70;100480.84;5064224;27;20135;-68
2022/01/08 10:56:55;;;;;;;;;;;;;;;4.63;72.08;100475.19;5045746;27;19930;-67
2022/01/08 10:59:21;;;;;;;;;;;;;;;4.68;70.88;100469.63;5031120;27;19967;-67
2022/01/08 11:01:53;;;;;;;;;;;;;;;4.71;69.84;100458.94;5066247;27;20495;-69
2022/01/08 11:04:34;;;;;;;;;;;;;;;4.53;71.56;100437.47;5063913;27;20015;-66
2022/01/08 11:07:01;;;;;;;;;;;;;;;4.65;70.90;100436.59;5068077;27;19911;-66
2022/01/08 11:09:26;;;;;;;;;;;;;;;4.19;71.75;100427.50;5035484;27;19980;-67
2022/01/08 11:11:52;;;;;;;;;;;;;;;4.26;72.41;100412.22;5060707;27;19907;-66
2022/01/08 11:14:34;;;;;;;;;;;;;;;4.05;72.76;100404.84;5066489;27;19903;-68
2022/01/08 11:16:59;;;;;;;;;;;;;;;4.20;71.21;100396.91;5028618;27;19979;-67
2022/01/08 11:19:24;;;;;;;;;;;;;;;4.00;70.04;100391.22;5032369;27;19927;-66
2022/01/08 11:21:49;;;;;;;;;;;;;;;4.34;70.66;100391.56;5033991;27;19949;-67
2022/01/08 11:24:18;;;;;;;;;;;;;;;4.45;68.92;100389.03;5035918;27;20032;-66
2022/01/08 11:26:43;;;;;;;;;;;;;;;4.33;69.20;100394.28;5032385;27;19914;-66
2022/01/08 11:29:09;;;;;;;;;;;;;;;4.38;69.16;100387.78;5041116;27;20284;-67
2022/01/08 11:31:34;;;;;;;;;;;;;;;4.37;68.78;100396.59;5021445;27;20691;-67
2022/01/08 11:34:06;;;;;;;;;;;;;;;4.51;69.21;100386.94;5035799;27;20292;-68
2022/01/08 11:36:31;;;;;;;;;;;;;;;4.36;68.56;100392.31;5042953;27;20004;-66
2022/01/08 11:38:57;;;;;;;;;;;;;;;4.22;67.94;100376.69;5037617;27;20170;-66
2022/01/08 11:41:22;;;;;;;;;;;;;;;3.98;69.31;100372.19;5047156;27;19951;-67
2022/01/08 11:43:49;;;;;;;;;;;;;;;3.95;70.31;100372.41;5044015;27;19915;-68
2022/01/08 11:46:14;;;;;;;;;;;;;;;4.15;69.62;100355.31;5044359;27;20460;-67
2022/01/08 11:48:41;;;;;;;;;;;;;;;3.92;70.13;100349.88;5020483;27;20683;-66
2022/01/08 11:51:07;;;;;;;;;;;;;;;3.88;69.81;100332.69;5036834;27;19918;-67
2022/01/08 11:53:32;;;;;;;;;;;;;;;3.84;70.97;100310.28;5028154;27;20701;-68
2022/01/08 11:56:02;;;;;;;;;;;;;;;4.00;70.10;100327.56;5036426;27;19963;-68
2022/01/08 11:58:28;;;;;;;;;;;;;;;4.18;69.98;100328.09;5030039;27;19960;-67
2022/01/08 12:00:55;;;;;;;;;;;;;;;3.98;69.54;100326.81;5039799;27;19971;-67
2022/01/08 12:03:36;;;;;;;;;;;;;;;4.25;69.38;100313.63;5064708;27;20814;-68
2022/01/08 12:06:26;;;;;;;;;;;;;;;4.36;68.64;100305.84;5045253;27;19918;-68
2022/01/08 12:08:56;;;;;;;;;;;;;;;4.39;68.35;100300.41;5043650;27;20035;-68
2022/01/08 12:11:21;;;;;;;;;;;;;;;4.44;68.88;100295.69;5071655;27;20302;-68
2022/01/08 12:13:47;;;;;;;;;;;;;;;4.32;67.72;100293.91;5083839;27;19971;-68
2022/01/08 12:16:31;;;;;;;;;;;;;;;4.29;67.77;100299.38;5084079;27;20148;-68
2022/01/08 12:18:56;;;;;;;;;;;;;;;4.09;68.96;100290.25;5054003;27;19955;-68
2022/01/08 12:21:40;;;;;;;;;;;;;;;4.45;68.29;100284.22;5066305;27;20319;-68
2022/01/08 12:24:24;;;;;;;;;;;;;;;4.64;68.57;100275.09;5068041;27;19974;-68
2022/01/08 12:26:50;;;;;;;;;;;;;;;4.64;66.54;100278.53;5064620;27;21046;-68
2022/01/08 12:29:38;;;;;;;;;;;;;;;4.67;66.18;100266.13;5048815;27;19965;-67
2022/01/08 12:32:26;;;;;;;;;;;;;;;4.47;66.84;100260.56;5060573;27;19907;-68
2022/01/08 12:35:00;;;;;;;;;;;;;;;4.29;67.66;100257.47;5068684;27;19903;-68
2022/01/08 12:37:34;;;;;;;;;;;;;;;4.57;68.21;100251.09;5057143;27;19934;-69
2022/01/08 12:39:59;;;;;;;;;;;;;;;5.08;65.30;100252.66;5077396;27;19922;-67
2022/01/08 12:42:27;;;;;;;;;;;;;;;5.44;64.30;100224.63;5067522;27;19953;-68
2022/01/08 12:45:01;;;;;;;;;;;;;;;5.58;62.95;100227.97;5067153;27;20865;-69
2022/01/08 12:47:45;;;;;;;;;;;;;;;5.46;62.70;100220.06;5069676;27;20267;-68
2022/01/08 12:50:23;;;;;;;;;;;;;;;4.86;64.16;100213.22;5066694;27;19919;-68
2022/01/08 12:53:07;;;;;;;;;;;;;;;4.49;65.50;100216.75;5047846;27;19904;-68
2022/01/08 12:55:36;;;;;;;;;;;;;;;4.18;66.26;100205.84;5069057;27;19907;-67
2022/01/08 12:58:11;;;;;;;;;;;;;;;4.33;66.56;100211.78;5031515;27;19933;-68
2022/01/08 13:00:49;;;;;;;;;;;;;;;4.20;66.72;100198.72;5047163;27;19907;-67
2022/01/08 13:03:14;;;;;;;;;;;;;;;4.08;67.35;100186.50;5050468;27;19899;-68
2022/01/08 13:05:39;;;;;;;;;;;;;;;3.96;67.43;100190.78;5066381;27;19912;-67
2022/01/08 13:08:05;;;;;;;;;;;;;;;4.15;68.79;100185.13;5060972;27;20016;-68
2022/01/08 13:10:30;;;;;;;;;;;;;;;4.16;67.56;100171.09;5063621;27;20293;-69
2022/01/08 13:13:02;;;;;;;;;;;;;;;4.05;67.62;100168.41;5049925;27;19931;-68